createdAt,value
2019-05-20T00:00:56.840Z,9.03
2019-05-20T00:03:04.303Z,8.18
2019-05-20T00:05:12.039Z,11.83
2019-05-20T00:07:19.487Z,11.68
2019-05-20T00:09:26.996Z,8.75
2019-05-20T00:11:34.477Z,9.90
2019-05-20T00:13:41.984Z,9.00
2019-05-20T00:15:49.383Z,9.90
2019-05-20T00:17:57.089Z,7.85
2019-05-20T00:20:04.827Z,7.67
2019-05-20T00:22:12.345Z,9.83
2019-05-20T00:24:19.729Z,10.25
2019-05-20T00:26:27.185Z,12.18
2019-05-20T00:28:34.616Z,13.25
2019-05-20T00:30:42.064Z,9.55
2019-05-20T00:32:49.475Z,10.90
2019-05-20T00:34:56.950Z,10.43
2019-05-20T00:37:04.419Z,10.08
2019-05-20T00:39:30.060Z,10.05
2019-05-20T00:41:37.587Z,12.78
2019-05-20T00:43:45.103Z,7.72
2019-05-20T00:45:52.513Z,12.33
2019-05-20T00:47:59.943Z,13.05
2019-05-20T00:50:08.207Z,11.78
2019-05-20T00:52:15.641Z,10.28
2019-05-20T00:54:23.274Z,9.20
2019-05-20T00:56:30.934Z,10.90
2019-05-20T00:58:38.352Z,16.27
2019-05-20T01:00:45.945Z,14.55
2019-05-20T01:02:56.993Z,8.90
2019-05-20T01:05:04.217Z,13.40
2019-05-20T01:07:11.620Z,9.60
2019-05-20T01:09:19.164Z,11.50
2019-05-20T01:11:27.418Z,13.93
2019-05-20T01:13:35.015Z,12.23
2019-05-20T01:15:42.523Z,9.60
2019-05-20T01:17:50.039Z,8.38
2019-05-20T01:19:57.529Z,13.40
2019-05-20T01:22:05.160Z,16.45
2019-05-20T01:24:12.621Z,8.95
2019-05-20T01:26:20.028Z,12.15
2019-05-20T01:28:27.454Z,9.05
2019-05-20T01:30:34.882Z,11.73
2019-05-20T01:32:42.454Z,12.07
2019-05-20T01:34:49.862Z,8.50
2019-05-20T01:36:57.412Z,12.05
2019-05-20T01:39:05.752Z,9.05
2019-05-20T01:41:13.184Z,10.45
2019-05-20T01:43:20.587Z,9.85
2019-05-20T01:45:27.959Z,9.85
2019-05-20T01:47:35.361Z,11.83
2019-05-20T01:49:42.946Z,10.15
2019-05-20T01:51:50.443Z,11.48
2019-05-20T01:53:57.928Z,12.05
2019-05-20T01:56:05.390Z,8.88
2019-05-20T01:58:12.904Z,11.73
2019-05-20T02:00:22.245Z,8.80
2019-05-20T02:02:29.626Z,13.53
2019-05-20T02:04:37.272Z,12.60
2019-05-20T02:06:44.737Z,12.28
2019-05-20T02:08:52.144Z,11.55
2019-05-20T02:10:59.531Z,13.55
2019-05-20T02:13:07.130Z,8.18
2019-05-20T02:15:25.650Z,10.30
2019-05-20T02:17:33.056Z,9.13
2019-05-20T02:19:40.493Z,9.00
2019-05-20T02:21:47.901Z,9.23
2019-05-20T02:23:55.298Z,14.23
2019-05-20T02:26:02.708Z,13.08
2019-05-20T02:28:10.187Z,13.78
2019-05-20T02:30:18.272Z,9.55
2019-05-20T02:32:25.685Z,10.10
2019-05-20T02:34:33.068Z,8.23
2019-05-20T02:36:40.618Z,10.38
2019-05-20T02:38:48.058Z,13.93
2019-05-20T02:40:55.456Z,9.85
2019-05-20T02:43:03.318Z,9.85
2019-05-20T02:45:11.509Z,13.93
2019-05-20T02:47:18.977Z,14.90
2019-05-20T02:49:26.410Z,14.58
2019-05-20T02:51:33.855Z,9.73
2019-05-20T02:53:41.407Z,10.90
2019-05-20T02:55:48.970Z,12.00
2019-05-20T02:57:56.412Z,12.43
2019-05-20T03:00:03.961Z,11.73
2019-05-20T03:02:11.405Z,16.48
2019-05-20T03:04:18.892Z,13.35
2019-05-20T03:06:26.277Z,10.23
2019-05-20T03:08:33.747Z,10.55
2019-05-20T03:10:41.256Z,11.38
2019-05-20T03:12:48.679Z,14.15
2019-05-20T03:14:56.184Z,10.60
2019-05-20T03:17:03.714Z,12.05
2019-05-20T03:19:11.240Z,14.17
2019-05-20T03:21:18.916Z,13.95
2019-05-20T03:23:26.342Z,16.48
2019-05-20T03:25:33.861Z,17.63
2019-05-20T03:27:41.440Z,12.63
2019-05-20T03:29:49.037Z,12.07
2019-05-20T03:31:56.530Z,11.70
2019-05-20T03:34:03.959Z,12.28
2019-05-20T03:36:11.796Z,10.63
2019-05-20T03:38:19.268Z,15.28
2019-05-20T03:40:26.823Z,12.47
2019-05-20T03:42:34.275Z,11.63
2019-05-20T03:44:41.771Z,10.70
2019-05-20T03:46:49.334Z,13.13
2019-05-20T03:48:56.823Z,13.22
2019-05-20T03:51:04.380Z,11.03
2019-05-20T03:53:11.836Z,12.93
2019-05-20T03:55:19.245Z,10.07
2019-05-20T03:57:26.648Z,13.00
2019-05-20T03:59:34.086Z,11.55
2019-05-20T04:01:41.549Z,11.57
2019-05-20T04:03:48.982Z,12.05
2019-05-20T04:05:56.459Z,12.98
2019-05-20T04:08:03.821Z,12.95
2019-05-20T04:10:11.529Z,15.30
2019-05-20T04:12:19.113Z,10.15
2019-05-20T04:14:26.810Z,12.03
2019-05-20T04:16:34.413Z,14.53
2019-05-20T04:18:41.969Z,15.40
2019-05-20T04:20:49.449Z,13.18
2019-05-20T04:22:56.966Z,16.57
2019-05-20T04:25:04.984Z,10.28
2019-05-20T04:27:12.593Z,10.43
2019-05-20T04:29:20.235Z,11.00
2019-05-20T04:31:27.761Z,12.25
2019-05-20T04:33:35.413Z,11.85
2019-05-20T04:35:43.100Z,15.32
2019-05-20T04:37:51.142Z,12.45
2019-05-20T04:39:58.971Z,13.15
2019-05-20T04:42:07.435Z,12.30
2019-05-20T04:44:14.995Z,11.80
2019-05-20T04:46:22.596Z,12.18
2019-05-20T04:48:30.049Z,9.48
2019-05-20T04:50:37.582Z,15.20
2019-05-20T04:52:45.051Z,13.32
2019-05-20T04:54:52.514Z,12.05
2019-05-20T04:57:00.005Z,14.40
2019-05-20T04:59:07.667Z,10.70
2019-05-20T05:01:15.226Z,12.28
2019-05-20T05:03:22.981Z,13.00
2019-05-20T05:05:37.815Z,11.53
2019-05-20T05:07:39.921Z,13.22
2019-05-20T05:09:47.502Z,17.57
2019-05-20T05:11:55.467Z,14.20
2019-05-20T05:14:03.199Z,16.35
2019-05-20T05:16:11.202Z,14.75
2019-05-20T05:18:19.040Z,11.88
2019-05-20T05:20:26.738Z,14.95
2019-05-20T05:22:34.325Z,13.90
2019-05-20T05:24:41.891Z,14.07
2019-05-20T05:26:49.483Z,10.25
2019-05-20T05:28:56.970Z,11.93
2019-05-20T05:31:04.527Z,11.78
2019-05-20T05:33:12.071Z,10.95
2019-05-20T05:35:20.675Z,12.13
2019-05-20T05:37:28.000Z,12.78
2019-05-20T05:39:35.463Z,15.10
2019-05-20T05:41:43.015Z,11.85
2019-05-20T05:43:50.505Z,17.42
2019-05-20T05:45:58.022Z,10.15
2019-05-20T05:48:05.764Z,14.00
2019-05-20T05:50:13.722Z,11.25
2019-05-20T05:52:22.995Z,14.20
2019-05-20T05:54:30.745Z,11.40
2019-05-20T05:56:38.578Z,11.03
2019-05-20T05:58:46.025Z,12.50
2019-05-20T06:00:53.637Z,10.08
2019-05-20T06:03:01.270Z,12.25
2019-05-20T06:05:09.231Z,21.15
2019-05-20T06:07:16.865Z,16.07
2019-05-20T06:09:24.345Z,14.45
2019-05-20T06:13:45.074Z,11.80
2019-05-20T06:15:54.578Z,11.28
2019-05-20T06:18:01.785Z,12.43
2019-05-20T06:20:11.861Z,9.38
2019-05-20T06:22:19.720Z,12.82
2019-05-20T06:24:27.236Z,9.55
2019-05-20T06:26:35.071Z,9.13
2019-05-20T06:28:42.550Z,13.22
2019-05-20T06:30:51.056Z,10.80
2019-05-20T06:32:58.509Z,11.05
2019-05-20T06:35:07.013Z,12.37
2019-05-20T06:37:16.564Z,12.03
2019-05-20T06:39:23.958Z,10.23
2019-05-20T06:41:31.371Z,10.82
2019-05-20T06:43:39.169Z,11.40
2019-05-20T06:45:46.838Z,9.88
2019-05-20T06:47:54.292Z,15.00
2019-05-20T06:50:01.796Z,16.12
2019-05-20T06:52:09.358Z,11.95
2019-05-20T06:54:16.839Z,11.08
2019-05-20T06:56:24.310Z,9.93
2019-05-20T06:58:31.781Z,10.45
2019-05-20T07:00:41.121Z,13.15
2019-05-20T07:02:51.603Z,14.98
2019-05-20T07:04:57.769Z,14.80
2019-05-20T07:07:19.944Z,10.08
2019-05-20T07:09:14.424Z,10.93
2019-05-20T07:11:21.948Z,11.93
2019-05-20T07:13:29.500Z,16.57
2019-05-20T07:15:37.107Z,11.97
2019-05-20T07:17:44.925Z,17.15
2019-05-20T07:20:00.301Z,13.70
2019-05-20T07:22:12.493Z,11.12
2019-05-20T07:24:20.026Z,10.08
2019-05-20T07:26:27.555Z,12.80
2019-05-20T07:28:35.042Z,10.85
2019-05-20T07:30:42.658Z,12.65
2019-05-20T07:32:50.284Z,15.50
2019-05-20T07:34:57.802Z,10.70
2019-05-20T07:37:05.256Z,13.28
2019-05-20T07:39:12.948Z,16.70
2019-05-20T07:41:20.816Z,10.13
2019-05-20T07:43:28.621Z,11.93
2019-05-20T07:45:39.147Z,14.58
2019-05-20T07:47:47.146Z,9.33
2019-05-20T07:49:55.579Z,10.55
2019-05-20T07:52:03.735Z,15.20
2019-05-20T07:54:12.320Z,13.98
2019-05-20T07:56:24.932Z,10.85
2019-05-20T07:58:36.509Z,10.28
2019-05-20T08:00:45.221Z,13.62
2019-05-20T08:02:52.844Z,10.90
2019-05-20T08:05:00.647Z,12.90
2019-05-20T08:07:26.637Z,15.58
2019-05-20T08:09:17.718Z,9.93
2019-05-20T08:11:25.186Z,15.03
2019-05-20T08:13:32.697Z,15.28
2019-05-20T08:15:40.355Z,9.98
2019-05-20T08:17:47.941Z,12.40
2019-05-20T08:19:55.437Z,8.80
2019-05-20T08:22:03.150Z,11.28
2019-05-20T08:24:10.654Z,13.20
2019-05-20T08:26:18.298Z,13.05
2019-05-20T08:28:25.890Z,11.90
2019-05-20T08:30:36.748Z,13.98
2019-05-20T08:32:44.259Z,14.65
2019-05-20T08:34:51.823Z,14.25
2019-05-20T08:36:59.232Z,14.23
2019-05-20T08:39:08.845Z,11.25
2019-05-20T08:41:16.331Z,11.83
2019-05-20T08:43:23.792Z,12.68
2019-05-20T08:45:31.419Z,11.93
2019-05-20T08:47:38.863Z,11.63
2019-05-20T08:49:46.730Z,11.85
2019-05-20T08:51:54.637Z,13.15
2019-05-20T08:54:02.311Z,16.00
2019-05-20T08:56:10.064Z,16.82
2019-05-20T08:58:18.011Z,18.42
2019-05-20T09:00:26.244Z,12.93
2019-05-20T09:02:34.218Z,11.35
2019-05-20T09:04:42.188Z,13.90
2019-05-20T09:06:50.616Z,8.60
2019-05-20T09:08:58.681Z,15.25
2019-05-20T09:11:07.517Z,17.15
2019-05-20T09:13:15.309Z,11.60
2019-05-20T09:15:23.648Z,9.23
2019-05-20T09:17:31.305Z,13.98
2019-05-20T09:19:38.741Z,10.15
2019-05-20T09:21:46.360Z,11.60
2019-05-20T09:23:53.788Z,13.50
2019-05-20T09:26:01.250Z,14.33
2019-05-20T09:28:09.055Z,12.03
2019-05-20T09:30:19.990Z,12.68
2019-05-20T09:32:28.054Z,11.12
2019-05-20T09:34:35.681Z,12.30
2019-05-20T09:36:43.403Z,13.98
2019-05-20T09:38:50.986Z,10.03
2019-05-20T09:40:58.410Z,14.15
2019-05-20T09:43:06.057Z,8.75
2019-05-20T09:45:14.041Z,14.53
2019-05-20T09:47:21.650Z,15.75
2019-05-20T09:49:29.394Z,9.93
2019-05-20T09:51:37.089Z,11.15
2019-05-20T09:53:44.668Z,11.18
2019-05-20T09:55:52.180Z,9.75
2019-05-20T09:57:59.705Z,12.88
2019-05-20T10:00:08.976Z,11.25
2019-05-20T10:02:16.456Z,9.98
2019-05-20T10:04:24.014Z,11.57
2019-05-20T10:06:31.669Z,9.23
2019-05-20T10:08:44.452Z,12.85
2019-05-20T10:10:48.318Z,12.70
2019-05-20T10:12:55.850Z,9.90
2019-05-20T10:15:03.277Z,16.00
2019-05-20T10:17:10.772Z,12.63
2019-05-20T10:19:18.264Z,15.50
2019-05-20T10:21:25.641Z,13.68
2019-05-20T10:23:33.157Z,11.35
2019-05-20T10:25:40.781Z,13.15
2019-05-20T10:27:48.417Z,17.15
2019-05-20T10:29:55.946Z,15.60
2019-05-20T10:32:03.442Z,13.13
2019-05-20T10:34:10.884Z,13.60
2019-05-20T10:36:18.407Z,17.75
2019-05-20T10:38:25.897Z,17.00
2019-05-20T10:40:33.353Z,12.75
2019-05-20T10:42:40.872Z,12.30
2019-05-20T10:44:48.804Z,13.65
2019-05-20T10:46:56.367Z,11.95
2019-05-20T10:49:03.976Z,18.05
2019-05-20T10:51:13.492Z,11.28
2019-05-20T10:53:21.980Z,13.15
2019-05-20T10:55:29.577Z,13.43
2019-05-20T10:57:38.137Z,12.82
2019-05-20T10:59:45.595Z,13.20
2019-05-20T11:01:53.311Z,14.20
2019-05-20T11:04:01.131Z,16.60
2019-05-20T11:06:08.843Z,14.85
2019-05-20T11:08:16.865Z,17.20
2019-05-20T11:10:25.411Z,19.67
2019-05-20T11:12:32.927Z,16.62
2019-05-20T11:14:40.416Z,15.75
2019-05-20T11:16:47.829Z,17.05
2019-05-20T11:18:55.197Z,15.83
2019-05-20T11:21:02.652Z,14.28
2019-05-20T11:23:10.008Z,15.55
2019-05-20T11:25:18.035Z,14.03
2019-05-20T11:27:25.514Z,15.68
2019-05-20T11:29:32.907Z,16.67
2019-05-20T11:31:40.619Z,15.18
2019-05-20T11:33:48.044Z,18.15
2019-05-20T11:35:55.532Z,19.48
2019-05-20T11:38:02.945Z,14.50
2019-05-20T11:40:12.818Z,18.35
2019-05-20T11:42:20.973Z,19.17
2019-05-20T11:44:28.383Z,15.05
2019-05-20T11:46:35.787Z,14.13
2019-05-20T11:48:43.421Z,17.12
2019-05-20T11:50:50.989Z,17.05
2019-05-20T11:52:58.495Z,16.02
2019-05-20T11:55:06.529Z,16.15
2019-05-20T11:57:13.970Z,16.87
2019-05-20T11:59:21.507Z,17.23
2019-05-20T12:01:29.323Z,16.15
2019-05-20T12:03:36.843Z,15.55
2019-05-20T12:05:45.929Z,19.17
2019-05-20T12:07:53.380Z,13.83
2019-05-20T12:10:00.838Z,16.32
2019-05-20T12:12:08.252Z,19.20
2019-05-20T12:14:15.859Z,15.45
2019-05-20T12:16:23.354Z,17.77
2019-05-20T12:18:30.800Z,29.35
2019-05-20T12:20:38.425Z,18.35
2019-05-20T12:22:46.059Z,15.85
2019-05-20T12:24:53.495Z,15.40
2019-05-20T12:27:00.970Z,22.05
2019-05-20T12:29:08.529Z,16.67
2019-05-20T12:31:16.128Z,17.30
2019-05-20T12:33:23.616Z,15.70
2019-05-20T12:35:31.368Z,15.35
2019-05-20T12:37:39.309Z,16.35
2019-05-20T12:39:46.704Z,13.93
2019-05-20T12:41:54.166Z,13.43
2019-05-20T12:44:12.060Z,18.07
2019-05-20T12:46:10.913Z,16.85
2019-05-20T12:48:18.464Z,19.15
2019-05-20T12:50:26.138Z,14.33
2019-05-20T12:52:33.664Z,16.97
2019-05-20T12:54:41.274Z,15.45
2019-05-20T12:56:49.094Z,14.58
2019-05-20T12:58:56.648Z,16.60
2019-05-20T13:01:04.318Z,15.70
2019-05-20T13:03:12.029Z,13.90
2019-05-20T13:05:21.688Z,16.05
2019-05-20T13:07:29.344Z,20.55
2019-05-20T13:09:36.943Z,15.35
2019-05-20T13:11:44.727Z,14.03
2019-05-20T13:13:52.356Z,13.83
2019-05-20T13:16:00.156Z,14.63
2019-05-20T13:18:07.886Z,17.40
2019-05-20T13:20:15.823Z,20.68
2019-05-20T13:22:23.730Z,18.07
2019-05-20T13:24:31.297Z,17.77
2019-05-20T13:26:38.891Z,17.30
2019-05-20T13:28:46.732Z,20.50
2019-05-20T13:30:54.281Z,15.98
2019-05-20T13:33:01.863Z,21.05
2019-05-20T13:35:10.646Z,14.63
2019-05-20T13:37:18.392Z,15.58
2019-05-20T13:39:26.251Z,18.10
2019-05-20T13:41:33.953Z,13.98
2019-05-20T13:43:41.577Z,14.28
2019-05-20T13:45:49.179Z,13.68
2019-05-20T13:47:56.941Z,15.40
2019-05-20T13:50:04.703Z,15.25
2019-05-20T13:52:12.288Z,16.35
2019-05-20T13:54:19.779Z,13.85
2019-05-20T13:56:27.584Z,13.85
2019-05-20T13:58:35.567Z,14.63
2019-05-20T14:00:43.391Z,12.15
2019-05-20T14:02:51.172Z,14.13
2019-05-20T14:04:58.779Z,15.23
2019-05-20T14:07:06.712Z,5.47
2019-05-20T14:09:14.270Z,17.07
2019-05-20T14:11:33.774Z,9.63
2019-05-20T14:13:31.051Z,7.70
2019-05-20T14:15:38.703Z,5.17
2019-05-20T14:17:46.790Z,5.42
2019-05-20T14:19:54.410Z,7.12
2019-05-20T14:22:02.001Z,7.03
2019-05-20T14:24:09.477Z,6.85
2019-05-20T14:26:17.034Z,7.00
2019-05-20T14:28:24.473Z,11.57
2019-05-20T14:30:32.132Z,10.98
2019-05-20T14:32:39.758Z,13.65
2019-05-20T14:34:48.578Z,14.65
2019-05-20T14:36:56.183Z,13.53
2019-05-20T14:39:04.458Z,14.63
2019-05-20T14:41:20.952Z,11.60
2019-05-20T14:43:21.166Z,11.45
2019-05-20T14:45:28.628Z,9.93
2019-05-20T14:47:36.364Z,10.23
2019-05-20T14:49:43.916Z,8.23
2019-05-20T14:51:51.331Z,10.65
2019-05-20T14:53:59.748Z,8.48
2019-05-20T14:56:07.428Z,9.08
2019-05-20T14:58:14.970Z,8.40
2019-05-20T15:00:22.509Z,13.20
2019-05-20T15:02:31.256Z,7.90
2019-05-20T15:04:39.088Z,12.78
2019-05-20T15:06:46.685Z,9.05
2019-05-20T15:08:54.207Z,10.20
2019-05-20T15:11:01.858Z,11.00
2019-05-20T15:13:09.461Z,16.37
2019-05-20T15:15:18.047Z,9.45
2019-05-20T15:17:25.631Z,15.85
2019-05-20T15:19:33.187Z,14.75
2019-05-20T15:21:40.865Z,10.58
2019-05-20T15:23:48.307Z,11.50
2019-05-20T15:25:56.873Z,16.37
2019-05-20T15:28:04.474Z,38.55
2019-05-20T15:30:12.847Z,52.15
2019-05-20T15:32:20.681Z,13.85
2019-05-20T15:34:28.188Z,11.78
2019-05-20T15:36:35.888Z,12.47
2019-05-20T15:38:43.422Z,12.07
2019-05-20T15:40:51.202Z,16.05
2019-05-20T15:42:58.615Z,9.55
2019-05-20T15:45:07.224Z,17.48
2019-05-20T15:47:18.650Z,13.32
2019-05-20T15:49:25.521Z,16.50
2019-05-20T15:51:34.770Z,20.27
2019-05-20T15:53:42.412Z,13.90
2019-05-20T15:55:50.235Z,13.38
2019-05-20T15:57:57.830Z,12.68
2019-05-20T16:00:06.838Z,12.20
2019-05-20T16:02:15.014Z,9.45
2019-05-20T16:04:24.335Z,11.48
2019-05-20T16:06:31.858Z,9.38
2019-05-20T16:08:39.895Z,10.55
2019-05-20T16:10:47.463Z,10.18
2019-05-20T16:12:55.135Z,14.13
2019-05-20T16:15:03.177Z,18.27
2019-05-20T16:17:11.308Z,12.55
2019-05-20T16:19:18.841Z,19.87
2019-05-20T16:21:26.559Z,15.53
2019-05-20T16:23:34.708Z,10.00
2019-05-20T16:25:42.914Z,14.15
2019-05-20T16:27:50.783Z,13.38
2019-05-20T16:30:06.181Z,10.28
2019-05-20T16:32:08.225Z,9.43
2019-05-20T16:34:15.746Z,11.55
2019-05-20T16:36:23.229Z,11.10
2019-05-20T16:38:30.980Z,15.55
2019-05-20T16:40:38.984Z,14.78
2019-05-20T16:42:46.894Z,14.90
2019-05-20T16:44:55.444Z,12.55
2019-05-20T16:47:03.118Z,14.43
2019-05-20T16:49:11.890Z,14.70
2019-05-20T16:51:22.379Z,11.20
2019-05-20T16:53:31.281Z,11.70
2019-05-20T16:55:39.441Z,15.83
2019-05-20T16:57:47.329Z,19.90
2019-05-20T16:59:56.093Z,12.93
2019-05-20T17:02:04.019Z,15.85
2019-05-20T17:04:12.550Z,22.42
2019-05-20T17:06:21.112Z,17.52
2019-05-20T17:08:29.001Z,21.12
2019-05-20T17:10:36.866Z,15.95
2019-05-20T17:12:44.439Z,24.45
2019-05-20T17:14:52.704Z,16.87
2019-05-20T17:17:00.466Z,18.73
2019-05-20T17:19:08.433Z,17.57
2019-05-20T17:21:16.350Z,25.02
2019-05-20T17:23:24.725Z,29.35
2019-05-20T17:25:33.068Z,26.42
2019-05-20T17:27:41.102Z,17.87
2019-05-20T17:29:48.620Z,28.80
2019-05-20T17:31:56.187Z,29.77
2019-05-20T17:34:05.162Z,17.60
2019-05-20T17:36:13.016Z,35.63
2019-05-20T17:38:21.138Z,52.20
2019-05-20T17:40:28.988Z,17.85
2019-05-20T17:42:37.529Z,19.10
2019-05-20T17:44:46.373Z,19.10
2019-05-20T17:46:55.301Z,21.10
2019-05-20T17:49:04.089Z,14.95
2019-05-20T17:51:13.407Z,16.60
2019-05-20T17:53:21.792Z,15.43
2019-05-20T17:55:30.463Z,19.67
2019-05-20T17:57:39.362Z,22.07
2019-05-20T17:59:47.059Z,20.75
2019-05-20T18:01:54.740Z,18.17
2019-05-20T18:04:02.601Z,19.85
2019-05-20T18:06:10.982Z,22.05
2019-05-20T18:08:18.561Z,16.25
2019-05-20T18:10:26.831Z,20.12
2019-05-20T18:12:35.249Z,19.00
2019-05-20T18:14:45.893Z,22.95
2019-05-20T18:16:54.234Z,21.60
2019-05-20T18:19:04.277Z,21.50
2019-05-20T18:21:12.394Z,19.62
2019-05-20T18:23:20.620Z,21.17
2019-05-20T18:25:28.468Z,21.42
2019-05-20T18:27:36.978Z,19.82
2019-05-20T18:29:44.949Z,14.40
2019-05-20T18:31:53.147Z,13.48
2019-05-20T18:34:01.891Z,13.40
2019-05-20T18:36:10.081Z,15.60
2019-05-20T18:38:18.194Z,16.10
2019-05-20T18:40:27.140Z,15.38
2019-05-20T18:42:36.851Z,14.80
2019-05-20T18:44:44.900Z,16.82
2019-05-20T18:46:53.604Z,18.02
2019-05-20T18:49:01.583Z,17.87
2019-05-20T18:51:11.127Z,20.20
2019-05-20T18:53:19.040Z,26.68
2019-05-20T18:55:26.653Z,23.15
2019-05-20T18:57:34.542Z,18.62
2019-05-20T18:59:43.156Z,14.28
2019-05-20T19:02:04.639Z,17.40
2019-05-20T19:04:01.104Z,19.62
2019-05-20T19:06:08.969Z,20.00
2019-05-20T19:08:16.925Z,18.62
2019-05-20T19:10:24.857Z,20.70
2019-05-20T19:12:32.869Z,21.00
2019-05-20T19:14:40.486Z,16.60
2019-05-20T19:16:48.851Z,24.85
2019-05-20T19:18:56.882Z,25.32
2019-05-20T19:21:04.712Z,25.85
2019-05-20T19:23:12.348Z,21.35
2019-05-20T19:25:20.032Z,19.73
2019-05-20T19:27:27.989Z,23.18
2019-05-20T19:29:35.907Z,17.80
2019-05-20T19:31:43.532Z,20.32
2019-05-20T19:33:51.181Z,17.48
2019-05-20T19:36:02.053Z,17.32
2019-05-20T19:38:09.942Z,12.13
2019-05-20T19:40:17.746Z,16.87
2019-05-20T19:42:26.262Z,15.53
2019-05-20T19:44:34.241Z,16.02
2019-05-20T19:46:41.893Z,16.15
2019-05-20T19:48:49.620Z,13.53
2019-05-20T19:50:57.428Z,15.08
2019-05-20T19:53:05.142Z,11.18
2019-05-20T19:55:13.245Z,13.62
2019-05-20T19:57:20.888Z,11.08
2019-05-20T19:59:28.566Z,13.83
2019-05-20T20:01:36.451Z,16.85
2019-05-20T20:03:44.328Z,12.40
2019-05-20T20:05:52.091Z,14.93
2019-05-20T20:08:00.334Z,24.55
2019-05-20T20:10:08.831Z,19.55
2019-05-20T20:12:16.604Z,9.70
2019-05-20T20:14:24.361Z,14.35
2019-05-20T20:16:31.940Z,14.47
2019-05-20T20:18:39.504Z,16.25
2019-05-20T20:20:47.211Z,14.45
2019-05-20T20:22:54.785Z,15.48
2019-05-20T20:25:02.937Z,17.25
2019-05-20T20:27:10.997Z,17.12
2019-05-20T20:29:20.015Z,13.50
2019-05-20T20:31:28.583Z,12.78
2019-05-20T20:33:36.404Z,14.28
2019-05-20T20:35:44.965Z,13.05
2019-05-20T20:37:55.116Z,15.20
2019-05-20T20:40:03.153Z,13.93
2019-05-20T20:42:11.746Z,17.45
2019-05-20T20:44:20.118Z,15.72
2019-05-20T20:46:28.010Z,15.98
2019-05-20T20:48:35.661Z,17.00
2019-05-20T20:50:43.274Z,13.28
2019-05-20T20:52:51.672Z,14.05
2019-05-20T20:54:59.650Z,16.97
2019-05-20T20:57:07.725Z,14.03
2019-05-20T20:59:15.435Z,19.85
2019-05-20T21:01:23.421Z,15.00
2019-05-20T21:03:31.084Z,12.88
2019-05-20T21:05:38.964Z,16.57
2019-05-20T21:07:46.873Z,18.82
2019-05-20T21:09:54.636Z,15.72
2019-05-20T21:12:02.536Z,16.37
2019-05-20T21:14:10.524Z,17.87
2019-05-20T21:16:18.348Z,17.90
2019-05-20T21:18:26.545Z,16.67
2019-05-20T21:20:34.906Z,17.52
2019-05-20T21:22:42.980Z,15.78
2019-05-20T21:24:50.797Z,17.80
2019-05-20T21:26:58.932Z,16.23
2019-05-20T21:29:06.910Z,16.05
2019-05-20T21:31:14.623Z,16.60
2019-05-20T21:33:22.315Z,15.30
2019-05-20T21:35:29.842Z,17.45
2019-05-20T21:37:37.550Z,14.38
2019-05-20T21:39:45.104Z,14.80
2019-05-20T21:41:52.664Z,16.55
2019-05-20T21:44:00.246Z,14.33
2019-05-20T21:46:07.984Z,15.48
2019-05-20T21:48:15.701Z,15.95
2019-05-20T21:50:23.111Z,17.07
2019-05-20T21:52:31.043Z,15.15
2019-05-20T21:54:38.554Z,14.65
2019-05-20T21:56:49.778Z,12.80
2019-05-20T21:58:55.542Z,17.23
2019-05-20T22:01:03.624Z,14.20
2019-05-20T22:03:23.572Z,14.23
2019-05-20T22:05:20.569Z,21.25
2019-05-20T22:07:28.330Z,15.63
2019-05-20T22:09:36.054Z,16.35
2019-05-20T22:11:43.613Z,18.10
2019-05-20T22:13:51.314Z,15.15
2019-05-20T22:15:58.742Z,22.15
2019-05-20T22:18:06.733Z,22.00
2019-05-20T22:20:16.231Z,16.48
2019-05-20T22:22:42.637Z,15.83
2019-05-20T22:24:50.660Z,18.82
2019-05-20T22:26:58.313Z,17.50
2019-05-20T22:29:05.991Z,13.80
2019-05-20T22:31:13.495Z,16.48
2019-05-20T22:33:20.961Z,20.25
2019-05-20T22:35:28.570Z,18.65
2019-05-20T22:37:36.097Z,17.50
2019-05-20T22:39:43.624Z,16.17
2019-05-20T22:41:51.062Z,20.35
2019-05-20T22:43:58.512Z,21.05
2019-05-20T22:46:06.206Z,20.68
2019-05-20T22:48:13.684Z,17.75
2019-05-20T22:50:21.144Z,19.20
2019-05-20T22:52:28.648Z,18.23
2019-05-20T22:54:36.117Z,22.20
2019-05-20T22:56:43.630Z,22.75
2019-05-20T22:58:51.209Z,20.57
2019-05-20T23:00:58.645Z,23.60
2019-05-20T23:03:06.263Z,26.30
2019-05-20T23:05:14.331Z,20.10
2019-05-20T23:07:21.827Z,18.42
2019-05-20T23:09:29.514Z,22.50
2019-05-20T23:11:37.128Z,20.48
2019-05-20T23:13:44.587Z,17.83
2019-05-20T23:15:55.466Z,17.30
2019-05-20T23:18:01.310Z,15.87
2019-05-20T23:20:09.710Z,15.05
2019-05-20T23:22:17.184Z,19.77
2019-05-20T23:24:24.681Z,16.12
2019-05-20T23:26:32.065Z,17.33
2019-05-20T23:28:39.551Z,14.30
2019-05-20T23:30:47.115Z,14.40
2019-05-20T23:32:54.577Z,17.62
2019-05-20T23:35:02.256Z,16.93
2019-05-20T23:37:09.847Z,12.97
2019-05-20T23:39:17.310Z,18.33
2019-05-20T23:41:24.808Z,17.80
2019-05-20T23:43:32.170Z,14.67
2019-05-20T23:45:39.771Z,18.87
2019-05-20T23:47:47.277Z,19.73
2019-05-20T23:49:54.730Z,17.03
2019-05-20T23:52:02.220Z,16.17
2019-05-20T23:54:09.705Z,17.83
2019-05-20T23:56:17.174Z,20.13
2019-05-20T23:58:24.581Z,18.40
